Verona, California
Current Conditions -  °F | °C
As of 2:53 PM on Tuesday 21 Oct 2014 (Local Time) from KSMF Reporting Station
Scattered Clouds Scattered Clouds  
Wind Chill: 71°   Ceiling: Unl
Heat Index: 71°   Visibility: 10mi
Dew Point: 41°   Wind: 14mph
Humidity: 34%   Direction: 320°NW
Pressure: 30.01"   Gusts: NA
Location:  38.8689°N, 121.569°W
Report Text: KSMF 212153Z 32012KT 10SM SCT250 22/05 A3001 RMK AO2 SLP162 T02170050
Loading
Personal Weather Stations






























Interactive Weather Map
Tropical Storm Tracking
New forecast layout! Learn more

10-Day Weather Forecast

Advertisements
Track Severe Weather on mobile